Time;durP1;ratioP1;P1;durP2;ratioP2;P2;SDS_P1;SDS_P2;PMS_P1;PMS_P2;Temp;Humidity;BMP_temperature;BMP_pressure;BME280_temperature;BME280_humidity;BME280_pressure;Samples;Min_cycle;Max_cycle;Signal;HPM_P1;HPM_P2
2023/10/22 00:00:00;;;;;;;5.80;1.13;;;;;;;;;;5018621;28;20657;-69
2023/10/22 00:02:25;;;;;;;6.97;1.00;;;;;;;;;;5028287;28;20186;-68
2023/10/22 00:04:51;;;;;;;4.00;0.85;;;;;;;;;;5024572;28;20275;-69
2023/10/22 00:07:16;;;;;;;4.45;1.20;;;;;;;;;;5034979;28;20189;-69
2023/10/22 00:09:41;;;;;;;6.38;1.10;;;;;;;;;;5030109;28;20284;-70
2023/10/22 00:12:07;;;;;;;3.95;0.80;;;;;;;;;;5027455;28;20213;-73
2023/10/22 00:14:33;;;;;;;3.20;0.70;;;;;;;;;;5027921;28;20216;-69
2023/10/22 00:16:59;;;;;;;5.80;1.00;;;;;;;;;;5027550;28;20206;-69
2023/10/22 00:19:24;;;;;;;4.50;1.40;;;;;;;;;;5027551;28;20219;-69
2023/10/22 00:21:50;;;;;;;2.60;0.85;;;;;;;;;;5029609;28;20458;-69
2023/10/22 00:24:15;;;;;;;2.95;0.85;;;;;;;;;;5026812;28;20190;-69
2023/10/22 00:26:40;;;;;;;7.53;1.20;;;;;;;;;;5019778;28;20186;-69
2023/10/22 00:29:06;;;;;;;4.00;1.20;;;;;;;;;;5042387;28;20210;-67
2023/10/22 00:31:32;;;;;;;3.78;1.10;;;;;;;;;;5032897;28;20189;-67
2023/10/22 00:33:57;;;;;;;3.80;1.05;;;;;;;;;;5032721;28;20225;-67
2023/10/22 00:36:24;;;;;;;5.78;1.02;;;;;;;;;;5031267;28;20686;-68
2023/10/22 00:38:52;;;;;;;4.70;1.20;;;;;;;;;;5031932;28;20692;-69
2023/10/22 00:41:18;;;;;;;2.40;0.60;;;;;;;;;;5032820;28;20174;-68
2023/10/22 00:43:43;;;;;;;3.80;0.65;;;;;;;;;;5047520;28;20499;-68
2023/10/22 00:46:23;;;;;;;7.95;0.98;;;;;;;;;;5052665;28;20270;-71
2023/10/22 00:48:49;;;;;;;4.03;0.90;;;;;;;;;;5046579;28;20271;-65
2023/10/22 00:51:15;;;;;;;3.92;0.77;;;;;;;;;;5046398;28;20273;-67
2023/10/22 00:53:42;;;;;;;3.13;0.77;;;;;;;;;;5032420;28;20278;-73
2023/10/22 00:56:09;;;;;;;4.05;0.75;;;;;;;;;;5031646;28;20296;-67
2023/10/22 00:58:36;;;;;;;6.05;0.70;;;;;;;;;;5032858;28;20210;-68
2023/10/22 01:01:06;;;;;;;9.10;0.75;;;;;;;;;;5033824;28;20454;-69
2023/10/22 01:03:32;;;;;;;6.70;0.73;;;;;;;;;;5033358;28;20197;-71
2023/10/22 01:05:57;;;;;;;6.28;1.00;;;;;;;;;;5033477;28;20194;-70
2023/10/22 01:08:23;;;;;;;5.40;1.00;;;;;;;;;;5033018;28;20236;-68
2023/10/22 01:10:49;;;;;;;6.05;0.98;;;;;;;;;;5031621;28;20546;-67
2023/10/22 01:13:15;;;;;;;4.93;1.08;;;;;;;;;;5029444;28;20190;-68
2023/10/22 01:15:40;;;;;;;6.88;1.20;;;;;;;;;;5030707;28;20237;-67
2023/10/22 01:18:06;;;;;;;4.93;0.73;;;;;;;;;;5032086;28;20519;-67
2023/10/22 01:20:33;;;;;;;7.47;1.10;;;;;;;;;;5032531;28;20197;-67
2023/10/22 01:22:59;;;;;;;4.00;0.82;;;;;;;;;;5032992;28;20629;-67
2023/10/22 01:25:25;;;;;;;5.38;0.90;;;;;;;;;;5029877;28;20182;-68
2023/10/22 01:27:50;;;;;;;5.38;0.95;;;;;;;;;;5023483;28;20531;-67
2023/10/22 01:30:15;;;;;;;3.42;0.90;;;;;;;;;;5030782;28;20563;-67
2023/10/22 01:32:41;;;;;;;5.13;1.00;;;;;;;;;;5036799;28;20289;-68
2023/10/22 01:35:06;;;;;;;2.95;0.65;;;;;;;;;;5038363;28;20640;-69
2023/10/22 01:37:36;;;;;;;3.03;0.55;;;;;;;;;;5039211;28;20275;-72
2023/10/22 01:40:03;;;;;;;2.55;0.50;;;;;;;;;;5038587;28;20265;-68
2023/10/22 01:42:29;;;;;;;4.05;0.50;;;;;;;;;;5043130;28;20186;-68
2023/10/22 01:44:55;;;;;;;2.28;0.77;;;;;;;;;;5036581;28;20294;-68
2023/10/22 01:47:20;;;;;;;7.00;0.40;;;;;;;;;;5026395;28;20265;-68
2023/10/22 01:49:47;;;;;;;3.33;0.63;;;;;;;;;;5052275;28;20595;-68
2023/10/22 01:52:13;;;;;;;2.85;0.52;;;;;;;;;;5031324;28;20661;-68
2023/10/22 01:54:39;;;;;;;3.42;0.70;;;;;;;;;;5022680;28;20214;-70
2023/10/22 01:57:04;;;;;;;3.78;0.60;;;;;;;;;;5025192;28;20289;-67
2023/10/22 01:59:30;;;;;;;1.33;0.38;;;;;;;;;;5024613;28;20277;-70
2023/10/22 02:01:55;;;;;;;3.40;0.47;;;;;;;;;;5030198;28;20197;-68
2023/10/22 02:04:20;;;;;;;2.10;0.30;;;;;;;;;;5043887;28;20238;-68
2023/10/22 02:06:46;;;;;;;3.67;0.57;;;;;;;;;;5027088;28;20186;-68
2023/10/22 02:09:11;;;;;;;2.65;0.50;;;;;;;;;;5016705;28;20268;-68
2023/10/22 02:11:37;;;;;;;2.30;0.75;;;;;;;;;;5031603;28;20195;-68
2023/10/22 02:14:02;;;;;;;3.28;0.65;;;;;;;;;;5031774;28;20225;-71
2023/10/22 02:16:28;;;;;;;6.47;0.70;;;;;;;;;;5013274;28;20237;-66
2023/10/22 02:18:53;;;;;;;4.78;0.63;;;;;;;;;;5029230;28;20216;-68
2023/10/22 02:21:21;;;;;;;2.35;0.52;;;;;;;;;;5032894;28;20186;-69
2023/10/22 02:23:46;;;;;;;2.75;0.70;;;;;;;;;;5029922;28;20197;-72
2023/10/22 02:26:12;;;;;;;3.47;0.65;;;;;;;;;;5029562;28;20529;-68
2023/10/22 02:28:37;;;;;;;3.50;0.60;;;;;;;;;;5031053;28;20241;-69
2023/10/22 02:31:04;;;;;;;1.45;0.40;;;;;;;;;;5030553;28;20675;-70
2023/10/22 02:33:29;;;;;;;4.00;0.50;;;;;;;;;;5031244;28;20194;-73
2023/10/22 02:35:55;;;;;;;3.15;0.70;;;;;;;;;;5030436;28;20578;-69
2023/10/22 02:38:21;;;;;;;3.85;0.68;;;;;;;;;;5027358;28;20214;-71
2023/10/22 02:40:49;;;;;;;2.35;0.43;;;;;;;;;;5030986;28;20261;-69
2023/10/22 02:43:16;;;;;;;3.05;0.50;;;;;;;;;;5038142;28;20209;-68
2023/10/22 02:45:51;;;;;;;7.57;0.82;;;;;;;;;;5022859;28;20199;-68
2023/10/22 02:48:17;;;;;;;2.20;0.80;;;;;;;;;;5017321;28;20209;-69
2023/10/22 02:50:42;;;;;;;3.20;0.50;;;;;;;;;;5040410;28;20190;-70
2023/10/22 02:53:08;;;;;;;1.88;0.80;;;;;;;;;;5026935;28;20186;-69
2023/10/22 02:55:33;;;;;;;2.97;0.50;;;;;;;;;;5024175;28;20538;-68
2023/10/22 02:57:59;;;;;;;2.63;0.55;;;;;;;;;;5024726;28;20677;-71
2023/10/22 03:00:25;;;;;;;3.03;0.73;;;;;;;;;;5029134;28;20214;-69
2023/10/22 03:02:50;;;;;;;5.55;0.82;;;;;;;;;;5016034;28;20193;-66
2023/10/22 03:05:16;;;;;;;2.22;0.57;;;;;;;;;;5021341;28;20233;-72
2023/10/22 03:07:41;;;;;;;3.60;0.70;;;;;;;;;;5020993;28;20191;-68
2023/10/22 03:10:09;;;;;;;2.70;0.52;;;;;;;;;;5032609;28;20505;-71
2023/10/22 03:12:35;;;;;;;2.28;0.50;;;;;;;;;;5027020;28;20213;-71
2023/10/22 03:15:00;;;;;;;4.82;0.80;;;;;;;;;;5027653;28;20268;-69
2023/10/22 03:17:25;;;;;;;1.05;0.55;;;;;;;;;;5019441;28;20250;-66
2023/10/22 03:19:51;;;;;;;2.17;0.60;;;;;;;;;;5029403;28;20241;-68
2023/10/22 03:22:18;;;;;;;4.63;0.77;;;;;;;;;;5028088;28;20223;-68
2023/10/22 03:24:48;;;;;;;2.15;0.63;;;;;;;;;;5029233;28;20633;-69
2023/10/22 03:27:14;;;;;;;2.30;0.70;;;;;;;;;;5026529;28;20191;-69
2023/10/22 03:29:39;;;;;;;2.10;0.88;;;;;;;;;;5022250;28;20449;-70
2023/10/22 03:32:05;;;;;;;4.47;0.77;;;;;;;;;;5030246;28;20190;-72
2023/10/22 03:34:31;;;;;;;4.13;0.80;;;;;;;;;;5030398;28;20194;-73
2023/10/22 03:36:56;;;;;;;2.90;0.73;;;;;;;;;;5028128;28;20248;-73
2023/10/22 03:39:21;;;;;;;2.05;0.90;;;;;;;;;;5024821;28;20186;-72
2023/10/22 03:41:47;;;;;;;5.43;1.00;;;;;;;;;;5029750;28;20190;-72
2023/10/22 03:44:12;;;;;;;4.85;0.98;;;;;;;;;;5026672;28;20198;-74
2023/10/22 03:46:38;;;;;;;2.35;0.93;;;;;;;;;;5029078;28;20213;-76
2023/10/22 03:49:03;;;;;;;3.72;0.95;;;;;;;;;;5041695;28;20409;-73
2023/10/22 03:51:29;;;;;;;3.38;1.00;;;;;;;;;;5034473;28;20194;-74
2023/10/22 03:53:56;;;;;;;4.20;1.30;;;;;;;;;;5020252;28;20189;-73
2023/10/22 03:56:22;;;;;;;2.65;1.10;;;;;;;;;;5049517;28;20682;-72
2023/10/22 03:58:47;;;;;;;6.85;1.20;;;;;;;;;;5034754;28;20263;-73
2023/10/22 04:01:12;;;;;;;4.18;0.93;;;;;;;;;;5031804;28;20205;-74
2023/10/22 04:03:38;;;;;;;6.50;1.40;;;;;;;;;;5025042;28;20206;-73
2023/10/22 04:06:03;;;;;;;3.70;1.00;;;;;;;;;;5027577;28;20198;-72
2023/10/22 04:08:29;;;;;;;4.15;0.98;;;;;;;;;;5032582;28;20178;-72
2023/10/22 04:10:55;;;;;;;5.00;1.27;;;;;;;;;;5033948;28;20264;-74
2023/10/22 04:13:21;;;;;;;1.90;1.02;;;;;;;;;;5023251;28;20248;-74
2023/10/22 04:15:48;;;;;;;4.30;1.23;;;;;;;;;;5032373;28;20298;-72
2023/10/22 04:18:14;;;;;;;5.13;1.70;;;;;;;;;;5023448;28;20219;-73
2023/10/22 04:20:39;;;;;;;2.90;1.20;;;;;;;;;;5029681;28;20236;-75
2023/10/22 04:23:05;;;;;;;2.45;1.50;;;;;;;;;;5048235;28;20218;-72
2023/10/22 04:25:36;;;;;;;5.15;1.40;;;;;;;;;;5033328;28;20229;-72
2023/10/22 04:28:03;;;;;;;4.47;1.30;;;;;;;;;;5029296;28;20190;-74
2023/10/22 04:30:28;;;;;;;5.05;1.58;;;;;;;;;;5026421;28;20193;-74
2023/10/22 04:32:53;;;;;;;5.45;1.65;;;;;;;;;;5033988;28;20251;-73
2023/10/22 04:35:19;;;;;;;2.38;1.45;;;;;;;;;;5031871;28;20248;-72
2023/10/22 04:37:44;;;;;;;3.35;1.35;;;;;;;;;;5024528;28;20596;-72
2023/10/22 04:40:10;;;;;;;4.35;1.83;;;;;;;;;;5022703;28;20187;-75
2023/10/22 04:42:35;;;;;;;5.28;1.88;;;;;;;;;;5025617;28;20475;-73
2023/10/22 04:45:01;;;;;;;3.28;1.70;;;;;;;;;;5021712;28;20195;-73
2023/10/22 04:47:26;;;;;;;3.47;1.70;;;;;;;;;;5025234;28;20251;-73
2023/10/22 04:49:52;;;;;;;4.95;1.70;;;;;;;;;;5030271;28;20186;-72
2023/10/22 04:52:27;;;;;;;4.78;1.98;;;;;;;;;;5023931;28;20711;-76
2023/10/22 04:54:53;;;;;;;3.28;1.83;;;;;;;;;;5017270;28;20194;-75
2023/10/22 04:57:18;;;;;;;2.65;1.73;;;;;;;;;;5021680;28;20214;-75
2023/10/22 04:59:44;;;;;;;5.30;2.20;;;;;;;;;;5040695;28;20531;-73
2023/10/22 05:02:09;;;;;;;4.78;2.30;;;;;;;;;;5024638;28;20193;-73
2023/10/22 05:04:34;;;;;;;4.88;2.35;;;;;;;;;;5028523;28;20218;-72
2023/10/22 05:07:00;;;;;;;9.43;2.88;;;;;;;;;;5022909;28;20193;-73
2023/10/22 05:09:25;;;;;;;5.15;2.10;;;;;;;;;;5034506;28;20736;-71
2023/10/22 05:11:50;;;;;;;4.70;2.50;;;;;;;;;;5039376;28;20251;-73
2023/10/22 05:14:16;;;;;;;6.90;2.50;;;;;;;;;;5023375;28;20186;-73
2023/10/22 05:16:41;;;;;;;3.20;2.30;;;;;;;;;;5030742;28;20237;-74
2023/10/22 05:19:08;;;;;;;5.72;2.92;;;;;;;;;;5031240;28;20202;-72
2023/10/22 05:21:34;;;;;;;6.22;3.65;;;;;;;;;;5029690;28;20197;-74
2023/10/22 05:23:59;;;;;;;3.80;3.05;;;;;;;;;;5027692;28;20237;-72
2023/10/22 05:26:24;;;;;;;4.95;3.30;;;;;;;;;;5037314;28;20613;-73
2023/10/22 05:28:50;;;;;;;6.53;3.35;;;;;;;;;;5021018;28;20193;-69
2023/10/22 05:31:20;;;;;;;4.72;3.42;;;;;;;;;;5028007;28;20186;-72
2023/10/22 05:33:45;;;;;;;5.85;4.10;;;;;;;;;;5042868;28;21507;-71
2023/10/22 05:36:15;;;;;;;4.25;3.85;;;;;;;;;;5022302;28;20190;-71
2023/10/22 05:38:41;;;;;;;7.68;5.53;;;;;;;;;;5021713;28;20213;-72
2023/10/22 05:41:06;;;;;;;6.80;6.10;;;;;;;;;;5020571;28;20710;-73
2023/10/22 05:43:31;;;;;;;6.32;5.70;;;;;;;;;;5026581;28;20220;-72
2023/10/22 05:45:57;;;;;;;8.05;5.97;;;;;;;;;;5028166;28;20185;-73
2023/10/22 05:48:22;;;;;;;9.73;6.90;;;;;;;;;;5023374;28;20255;-73
2023/10/22 05:50:48;;;;;;;9.30;6.68;;;;;;;;;;5029925;28;20190;-71
2023/10/22 05:53:13;;;;;;;9.98;7.28;;;;;;;;;;5031791;28;20231;-71
2023/10/22 05:55:38;;;;;;;9.43;6.82;;;;;;;;;;5025191;28;20628;-71
2023/10/22 05:58:05;;;;;;;10.00;7.22;;;;;;;;;;5024827;28;20206;-70
2023/10/22 06:00:30;;;;;;;8.15;6.95;;;;;;;;;;5027936;28;20195;-71
2023/10/22 06:02:56;;;;;;;10.55;7.25;;;;;;;;;;5021121;28;20281;-69
2023/10/22 06:05:21;;;;;;;11.52;7.38;;;;;;;;;;5039602;28;20193;-70
2023/10/22 06:07:46;;;;;;;10.52;7.28;;;;;;;;;;5033185;28;20703;-70
2023/10/22 06:10:12;;;;;;;7.60;6.43;;;;;;;;;;5020954;28;20186;-70
2023/10/22 06:12:37;;;;;;;12.43;6.47;;;;;;;;;;5029480;28;20209;-70
2023/10/22 06:15:05;;;;;;;8.65;5.90;;;;;;;;;;5028232;28;20238;-70
2023/10/22 06:17:31;;;;;;;11.98;6.20;;;;;;;;;;5025072;28;20232;-70
2023/10/22 06:19:57;;;;;;;11.75;6.43;;;;;;;;;;5022662;28;20496;-70
2023/10/22 06:22:22;;;;;;;7.63;6.68;;;;;;;;;;5030767;28;20628;-70
2023/10/22 06:24:48;;;;;;;10.77;6.35;;;;;;;;;;5022783;28;20195;-70
2023/10/22 06:27:13;;;;;;;8.98;6.57;;;;;;;;;;5022604;28;20187;-67
2023/10/22 06:29:38;;;;;;;12.07;6.88;;;;;;;;;;5018035;28;20220;-69
2023/10/22 06:32:04;;;;;;;12.00;7.70;;;;;;;;;;5048460;28;20189;-69
2023/10/22 06:34:29;;;;;;;9.07;7.53;;;;;;;;;;5028701;28;20206;-69
2023/10/22 06:36:55;;;;;;;10.77;8.02;;;;;;;;;;5017694;28;20210;-70
2023/10/22 06:39:21;;;;;;;11.15;7.80;;;;;;;;;;5023557;28;20190;-70
2023/10/22 06:41:46;;;;;;;14.05;7.82;;;;;;;;;;5028405;28;20516;-69
2023/10/22 06:44:12;;;;;;;13.43;8.20;;;;;;;;;;5017501;28;20205;-69
2023/10/22 06:46:37;;;;;;;13.60;7.80;;;;;;;;;;5028234;28;20484;-70
2023/10/22 06:49:03;;;;;;;14.10;8.13;;;;;;;;;;5025818;28;20198;-70
2023/10/22 06:51:29;;;;;;;10.95;8.07;;;;;;;;;;5017436;28;20693;-70
2023/10/22 06:53:54;;;;;;;10.65;8.63;;;;;;;;;;5027094;28;20190;-69
2023/10/22 06:56:19;;;;;;;12.15;8.52;;;;;;;;;;5023802;28;20213;-69
2023/10/22 06:58:46;;;;;;;14.95;8.73;;;;;;;;;;5022706;28;20224;-70
2023/10/22 07:01:13;;;;;;;12.50;8.90;;;;;;;;;;5029380;28;20335;-69
2023/10/22 07:03:44;;;;;;;12.45;8.32;;;;;;;;;;5037949;28;20210;-69
2023/10/22 07:06:10;;;;;;;14.77;8.07;;;;;;;;;;5019519;28;20476;-70
2023/10/22 07:08:36;;;;;;;16.27;8.57;;;;;;;;;;5024672;28;20335;-70
2023/10/22 07:11:02;;;;;;;13.70;7.65;;;;;;;;;;5020414;28;20191;-69
2023/10/22 07:13:28;;;;;;;9.75;7.63;;;;;;;;;;5017719;28;20190;-69
2023/10/22 07:15:54;;;;;;;9.25;7.05;;;;;;;;;;5028052;28;20238;-71
2023/10/22 07:18:21;;;;;;;11.55;7.55;;;;;;;;;;5029355;28;20495;-70
2023/10/22 07:20:47;;;;;;;12.90;7.45;;;;;;;;;;5023627;28;20248;-70
2023/10/22 07:23:13;;;;;;;9.15;6.35;;;;;;;;;;5025822;28;20205;-68
2023/10/22 07:25:38;;;;;;;9.32;6.50;;;;;;;;;;5020783;28;20198;-69
2023/10/22 07:28:04;;;;;;;12.27;5.55;;;;;;;;;;5019353;28;20216;-68
2023/10/22 07:30:31;;;;;;;8.52;5.10;;;;;;;;;;5023344;28;20618;-69
2023/10/22 07:32:57;;;;;;;9.27;4.95;;;;;;;;;;5021105;28;20186;-71
2023/10/22 07:35:22;;;;;;;5.05;4.55;;;;;;;;;;5017826;28;20205;-69
2023/10/22 07:37:48;;;;;;;11.07;4.88;;;;;;;;;;5020495;28;20202;-70
2023/10/22 07:40:14;;;;;;;6.07;3.80;;;;;;;;;;5025403;28;20248;-70
2023/10/22 07:42:44;;;;;;;7.78;4.03;;;;;;;;;;5021584;28;20261;-70
2023/10/22 07:45:09;;;;;;;4.05;3.40;;;;;;;;;;5022242;28;20190;-69
2023/10/22 07:47:39;;;;;;;4.80;2.85;;;;;;;;;;5021069;28;20178;-70
2023/10/22 07:50:05;;;;;;;4.47;2.75;;;;;;;;;;5026482;28;20596;-69
2023/10/22 07:52:31;;;;;;;13.85;7.95;;;;;;;;;;5016091;28;20199;-69
2023/10/22 07:54:57;;;;;;;7.03;4.43;;;;;;;;;;5021891;28;20189;-68
2023/10/22 07:57:24;;;;;;;5.43;3.67;;;;;;;;;;5019590;28;20272;-69
2023/10/22 07:59:50;;;;;;;5.50;3.90;;;;;;;;;;5024792;28;20569;-69
2023/10/22 08:02:15;;;;;;;3.08;2.78;;;;;;;;;;5019210;28;20201;-68
2023/10/22 08:04:41;;;;;;;7.70;2.83;;;;;;;;;;5018678;28;20558;-68
2023/10/22 08:07:07;;;;;;;5.32;3.50;;;;;;;;;;5024911;28;20224;-68
2023/10/22 08:09:32;;;;;;;2.38;2.17;;;;;;;;;;5026809;28;20221;-69
2023/10/22 08:11:58;;;;;;;3.60;2.80;;;;;;;;;;5023494;28;20644;-69
2023/10/22 08:14:24;;;;;;;4.88;2.35;;;;;;;;;;5033212;28;20232;-69
2023/10/22 08:16:50;;;;;;;3.92;2.13;;;;;;;;;;5027581;28;20315;-69
2023/10/22 08:19:15;;;;;;;3.15;2.60;;;;;;;;;;5025881;28;20221;-69
2023/10/22 08:21:41;;;;;;;6.07;2.92;;;;;;;;;;5026385;28;20202;-68
2023/10/22 08:24:07;;;;;;;4.60;2.75;;;;;;;;;;5038651;28;20198;-68
2023/10/22 08:26:32;;;;;;;4.45;2.50;;;;;;;;;;5036154;28;20325;-69
2023/10/22 08:28:57;;;;;;;7.35;3.30;;;;;;;;;;5024035;28;20216;-69
2023/10/22 08:31:23;;;;;;;6.15;4.18;;;;;;;;;;5021908;28;20261;-69
2023/10/22 08:33:48;;;;;;;8.50;4.70;;;;;;;;;;5020114;28;20685;-69
2023/10/22 08:36:15;;;;;;;5.90;5.30;;;;;;;;;;5022171;28;20193;-69
2023/10/22 08:38:41;;;;;;;10.20;6.20;;;;;;;;;;5021693;28;20580;-70
2023/10/22 08:41:19;;;;;;;7.47;5.55;;;;;;;;;;5022294;28;20198;-70
2023/10/22 08:43:45;;;;;;;8.38;6.57;;;;;;;;;;5022409;28;20248;-69
2023/10/22 08:46:11;;;;;;;10.20;6.63;;;;;;;;;;5026542;28;20661;-67
2023/10/22 08:48:37;;;;;;;12.70;7.57;;;;;;;;;;5028622;28;20189;-68
2023/10/22 08:51:04;;;;;;;9.98;7.72;;;;;;;;;;5030293;28;20194;-68
2023/10/22 08:53:29;;;;;;;10.35;7.80;;;;;;;;;;5031284;28;20186;-68
2023/10/22 08:55:56;;;;;;;11.68;7.53;;;;;;;;;;5035486;28;20200;-68
2023/10/22 08:58:21;;;;;;;9.82;7.38;;;;;;;;;;5027231;28;20640;-68
2023/10/22 09:00:49;;;;;;;16.77;7.07;;;;;;;;;;5020949;28;20206;-68
2023/10/22 09:03:16;;;;;;;9.02;7.28;;;;;;;;;;5030224;28;20221;-68
2023/10/22 09:05:42;;;;;;;9.02;6.93;;;;;;;;;;5027856;28;20243;-68
2023/10/22 09:08:08;;;;;;;7.25;5.72;;;;;;;;;;5033300;28;20190;-68
2023/10/22 09:10:34;;;;;;;7.78;5.65;;;;;;;;;;5028258;28;20190;-70
2023/10/22 09:13:22;;;;;;;10.30;5.70;;;;;;;;;;5021478;28;20270;-70
2023/10/22 09:15:52;;;;;;;9.20;5.55;;;;;;;;;;5017184;28;20346;-69
2023/10/22 09:18:18;;;;;;;8.25;4.97;;;;;;;;;;5020311;28;20221;-69
2023/10/22 09:20:44;;;;;;;11.70;5.75;;;;;;;;;;5032231;28;20256;-68
2023/10/22 09:23:17;;;;;;;8.10;5.18;;;;;;;;;;5035144;28;20182;-69
2023/10/22 09:25:55;;;;;;;10.13;5.10;;;;;;;;;;5028021;28;20213;-68
2023/10/22 09:28:21;;;;;;;7.15;4.30;;;;;;;;;;5027004;28;20709;-68
2023/10/22 09:30:58;;;;;;;6.60;4.28;;;;;;;;;;5025635;28;20217;-72
2023/10/22 09:33:34;;;;;;;7.38;4.53;;;;;;;;;;5025191;28;20190;-69
2023/10/22 09:36:07;;;;;;;7.68;4.57;;;;;;;;;;5031790;28;20186;-67
2023/10/22 09:38:52;;;;;;;6.80;4.47;;;;;;;;;;5015952;28;20506;-69
2023/10/22 09:41:23;;;;;;;9.00;4.22;;;;;;;;;;5026754;28;20516;-68
2023/10/22 09:43:50;;;;;;;7.55;3.97;;;;;;;;;;5018558;28;20248;-70
2023/10/22 09:46:18;;;;;;;9.88;3.70;;;;;;;;;;5025440;28;20273;-68
2023/10/22 09:48:47;;;;;;;7.78;3.80;;;;;;;;;;5028474;28;21500;-69
2023/10/22 09:51:14;;;;;;;7.70;3.45;;;;;;;;;;5026447;28;20186;-68
2023/10/22 09:53:45;;;;;;;8.38;2.90;;;;;;;;;;5023002;28;20233;-69
2023/10/22 09:56:11;;;;;;;6.85;3.08;;;;;;;;;;5041678;28;20275;-70
2023/10/22 09:58:43;;;;;;;8.23;2.95;;;;;;;;;;5031907;28;20271;-69
2023/10/22 10:01:10;;;;;;;6.18;2.55;;;;;;;;;;5014308;28;20187;-68
2023/10/22 10:03:37;;;;;;;7.63;2.42;;;;;;;;;;5025629;28;20216;-67
2023/10/22 10:06:07;;;;;;;8.95;2.50;;;;;;;;;;5030962;28;20649;-67
2023/10/22 10:08:36;;;;;;;6.05;2.13;;;;;;;;;;5038930;28;20576;-68
2023/10/22 10:11:02;;;;;;;6.80;2.55;;;;;;;;;;5039151;28;20595;-69
2023/10/22 10:13:28;;;;;;;7.00;2.35;;;;;;;;;;5029136;28;20182;-68
2023/10/22 10:16:01;;;;;;;3.35;1.83;;;;;;;;;;5031784;28;20234;-69
2023/10/22 10:19:03;;;;;;;5.70;2.03;;;;;;;;;;5039178;28;20207;-68
2023/10/22 10:21:34;;;;;;;7.00;2.03;;;;;;;;;;5005015;28;20186;-68
2023/10/22 10:24:23;;;;;;;4.88;1.88;;;;;;;;;;5045301;28;20285;-68
2023/10/22 10:27:11;;;;;;;6.32;1.80;;;;;;;;;;5039657;28;20224;-68
2023/10/22 10:29:37;;;;;;;6.82;1.50;;;;;;;;;;5023723;28;20201;-68
2023/10/22 10:32:15;;;;;;;4.90;1.63;;;;;;;;;;5018584;28;20718;-70
2023/10/22 10:34:43;;;;;;;7.07;1.50;;;;;;;;;;5032266;28;20265;-68
2023/10/22 10:37:16;;;;;;;5.18;1.60;;;;;;;;;;5031437;28;20225;-69
2023/10/22 10:39:44;;;;;;;4.13;1.40;;;;;;;;;;5018734;28;20205;-67
2023/10/22 10:42:11;;;;;;;4.03;1.20;;;;;;;;;;5031584;28;20183;-68
2023/10/22 10:45:03;;;;;;;5.68;1.50;;;;;;;;;;5028953;28;20205;-68
2023/10/22 10:47:36;;;;;;;7.95;1.40;;;;;;;;;;5030582;28;20186;-70
2023/10/22 10:50:05;;;;;;;6.25;1.42;;;;;;;;;;5024065;28;20186;-69
2023/10/22 10:52:33;;;;;;;6.40;1.40;;;;;;;;;;5029677;28;20277;-67
2023/10/22 10:55:10;;;;;;;3.50;1.05;;;;;;;;;;5028037;28;20210;-67
2023/10/22 10:57:47;;;;;;;2.60;1.10;;;;;;;;;;5029831;28;20684;-68
2023/10/22 11:00:19;;;;;;;3.72;1.77;;;;;;;;;;5023308;28;20247;-68
2023/10/22 11:02:52;;;;;;;11.20;3.70;;;;;;;;;;5031910;28;20226;-71
2023/10/22 11:05:29;;;;;;;5.00;1.88;;;;;;;;;;5038589;28;20186;-68
2023/10/22 11:07:55;;;;;;;2.13;1.42;;;;;;;;;;5025317;28;20255;-68
2023/10/22 11:10:21;;;;;;;6.63;1.90;;;;;;;;;;5049216;28;20206;-67
2023/10/22 11:12:47;;;;;;;5.47;2.33;;;;;;;;;;5031866;28;20186;-67
2023/10/22 11:15:13;;;;;;;6.05;3.13;;;;;;;;;;5023412;28;20257;-69
2023/10/22 11:17:46;;;;;;;5.70;2.25;;;;;;;;;;5046063;28;20246;-69
2023/10/22 11:20:15;;;;;;;6.65;1.73;;;;;;;;;;5032380;28;20684;-69
2023/10/22 11:22:41;;;;;;;3.65;1.33;;;;;;;;;;5029421;28;20378;-68
2023/10/22 11:25:08;;;;;;;1.88;1.15;;;;;;;;;;5049878;28;20189;-68
2023/10/22 11:27:38;;;;;;;3.15;1.10;;;;;;;;;;5032805;28;20250;-68
2023/10/22 11:30:05;;;;;;;3.55;1.35;;;;;;;;;;5032557;28;20224;-68
2023/10/22 11:32:30;;;;;;;5.32;1.30;;;;;;;;;;5036042;28;20265;-69
2023/10/22 11:35:02;;;;;;;6.15;1.58;;;;;;;;;;5029630;28;20197;-68
2023/10/22 11:37:38;;;;;;;3.28;1.10;;;;;;;;;;5033591;28;20198;-68
2023/10/22 11:40:22;;;;;;;3.38;1.40;;;;;;;;;;5040183;28;20175;-68
2023/10/22 11:42:47;;;;;;;3.35;1.58;;;;;;;;;;5026555;28;20189;-69
2023/10/22 11:45:13;;;;;;;8.95;1.17;;;;;;;;;;5030496;28;20465;-67
2023/10/22 11:47:39;;;;;;;3.07;1.10;;;;;;;;;;4328305;28;10000736;-67
2023/10/22 11:50:05;;;;;;;3.42;1.20;;;;;;;;;;5025708;28;20448;-67
2023/10/22 11:52:37;;;;;;;4.45;1.48;;;;;;;;;;5020495;28;20387;-67
2023/10/22 11:55:09;;;;;;;5.38;1.58;;;;;;;;;;5032188;28;20188;-69
2023/10/22 11:57:39;;;;;;;3.78;1.20;;;;;;;;;;5040342;28;20230;-68
2023/10/22 12:00:11;;;;;;;4.47;0.90;;;;;;;;;;5004664;28;20273;-69
2023/10/22 12:02:39;;;;;;;4.38;0.95;;;;;;;;;;5052156;28;20194;-68
2023/10/22 12:05:05;;;;;;;4.25;1.10;;;;;;;;;;5020755;28;20430;-67
2023/10/22 12:07:31;;;;;;;4.88;1.13;;;;;;;;;;5028313;28;20695;-70
2023/10/22 12:09:57;;;;;;;5.13;0.90;;;;;;;;;;5014116;28;20257;-67
2023/10/22 12:12:23;;;;;;;2.75;0.80;;;;;;;;;;5029541;28;20922;-69
2023/10/22 12:14:49;;;;;;;3.45;1.10;;;;;;;;;;5029808;28;20284;-68
2023/10/22 12:17:16;;;;;;;4.40;1.05;;;;;;;;;;5029832;28;20214;-67
2023/10/22 12:19:41;;;;;;;4.05;0.80;;;;;;;;;;4671297;28;9999848;-69
2023/10/22 12:22:07;;;;;;;1.45;0.70;;;;;;;;;;5030047;28;20187;-67
2023/10/22 12:24:32;;;;;;;4.07;0.88;;;;;;;;;;5035772;28;20604;-68
2023/10/22 12:26:59;;;;;;;4.30;0.90;;;;;;;;;;5033815;28;20672;-70
2023/10/22 12:29:25;;;;;;;4.47;0.90;;;;;;;;;;5033079;28;20189;-67
2023/10/22 12:31:50;;;;;;;2.60;0.85;;;;;;;;;;5032549;28;20181;-71
2023/10/22 12:34:16;;;;;;;1.92;0.50;;;;;;;;;;5054816;28;20277;-67
2023/10/22 12:36:41;;;;;;;3.83;0.90;;;;;;;;;;5036123;28;20291;-69
2023/10/22 12:39:07;;;;;;;3.45;0.65;;;;;;;;;;5045956;28;20696;-69
2023/10/22 12:41:34;;;;;;;3.00;0.60;;;;;;;;;;5035903;28;20256;-67
2023/10/22 12:44:00;;;;;;;4.72;1.13;;;;;;;;;;5049307;28;20221;-68
2023/10/22 12:46:25;;;;;;;1.67;0.80;;;;;;;;;;5037035;28;20189;-67
2023/10/22 12:48:52;;;;;;;4.72;1.13;;;;;;;;;;5029821;28;20187;-67
2023/10/22 12:51:18;;;;;;;10.13;4.28;;;;;;;;;;5049528;28;20616;-70
2023/10/22 12:53:46;;;;;;;11.13;4.80;;;;;;;;;;5019972;28;20253;-68
2023/10/22 12:56:13;;;;;;;13.45;3.95;;;;;;;;;;5025468;28;20187;-66
2023/10/22 12:58:38;;;;;;;5.57;1.90;;;;;;;;;;5030607;28;20218;-68
2023/10/22 13:01:06;;;;;;;4.07;0.80;;;;;;;;;;5026396;28;20275;-67
2023/10/22 13:03:31;;;;;;;4.53;1.23;;;;;;;;;;5038985;28;20194;-69
2023/10/22 13:06:01;;;;;;;6.60;0.90;;;;;;;;;;5035641;28;20189;-68
2023/10/22 13:08:27;;;;;;;2.78;0.90;;;;;;;;;;5034644;28;20182;-69
2023/10/22 13:10:53;;;;;;;2.47;0.73;;;;;;;;;;5028271;28;20193;-70
2023/10/22 13:13:26;;;;;;;2.30;1.13;;;;;;;;;;4800102;28;10000774;-68
2023/10/22 13:15:52;;;;;;;39.53;21.67;;;;;;;;;;5031157;28;20442;-69
2023/10/22 13:18:17;;;;;;;97.00;61.85;;;;;;;;;;5020419;28;20201;-68
2023/10/22 13:20:43;;;;;;;29.27;18.45;;;;;;;;;;5034651;28;20212;-70
2023/10/22 13:23:09;;;;;;;78.32;50.78;;;;;;;;;;5027996;28;20564;-68
2023/10/22 13:25:35;;;;;;;14.35;7.22;;;;;;;;;;5033358;28;20186;-68
2023/10/22 13:28:01;;;;;;;161.80;102.00;;;;;;;;;;5031947;28;20213;-67
2023/10/22 13:30:27;;;;;;;40.55;27.42;;;;;;;;;;5030618;28;20630;-68
2023/10/22 13:32:58;;;;;;;111.93;70.45;;;;;;;;;;5030467;28;20182;-67
2023/10/22 13:35:28;;;;;;;132.00;88.53;;;;;;;;;;5040568;28;20185;-68
2023/10/22 13:37:53;;;;;;;304.10;193.90;;;;;;;;;;5034196;28;20236;-68
2023/10/22 13:40:19;;;;;;;21.20;13.90;;;;;;;;;;4684127;28;9999829;-71
2023/10/22 13:42:45;;;;;;;124.22;73.03;;;;;;;;;;5035305;28;20186;-68
2023/10/22 13:45:11;;;;;;;15.55;10.20;;;;;;;;;;5030019;28;20499;-67
2023/10/22 13:47:37;;;;;;;13.85;6.93;;;;;;;;;;5051008;28;20305;-69
2023/10/22 13:50:04;;;;;;;192.02;125.13;;;;;;;;;;5031944;28;20181;-69
2023/10/22 13:52:29;;;;;;;67.43;43.92;;;;;;;;;;5032363;28;20187;-68
2023/10/22 13:54:56;;;;;;;8.38;4.30;;;;;;;;;;5024316;28;20178;-68
2023/10/22 13:57:22;;;;;;;86.25;48.25;;;;;;;;;;5032275;28;20217;-67
2023/10/22 13:59:48;;;;;;;49.95;28.17;;;;;;;;;;5044984;28;20220;-69
2023/10/22 14:02:13;;;;;;;27.55;18.15;;;;;;;;;;5017168;28;20182;-68
2023/10/22 14:04:39;;;;;;;61.08;27.85;;;;;;;;;;5032144;28;20598;-69
2023/10/22 14:07:04;;;;;;;157.93;80.55;;;;;;;;;;5032116;28;20514;-68
2023/10/22 14:09:30;;;;;;;99.35;52.92;;;;;;;;;;5045399;28;20289;-68
2023/10/22 14:11:55;;;;;;;101.43;49.33;;;;;;;;;;4702879;28;10000508;-69
2023/10/22 14:14:21;;;;;;;11.55;5.57;;;;;;;;;;5035380;28;20456;-67
2023/10/22 14:16:46;;;;;;;49.67;22.27;;;;;;;;;;5020175;28;20544;-69
2023/10/22 14:19:12;;;;;;;16.25;12.68;;;;;;;;;;5024715;28;20229;-68
2023/10/22 14:21:40;;;;;;;2.15;1.20;;;;;;;;;;5040343;28;20197;-68
2023/10/22 14:24:06;;;;;;;4.25;1.50;;;;;;;;;;5031678;28;20259;-68
2023/10/22 14:26:32;;;;;;;1.85;0.80;;;;;;;;;;5028383;28;20258;-67
2023/10/22 14:28:57;;;;;;;1.92;0.98;;;;;;;;;;5028361;28;20218;-69
2023/10/22 14:31:23;;;;;;;1.95;1.08;;;;;;;;;;5050550;28;20633;-67
2023/10/22 14:33:48;;;;;;;1.50;0.98;;;;;;;;;;5031233;28;20198;-68
2023/10/22 14:36:13;;;;;;;3.15;1.30;;;;;;;;;;5026753;28;20179;-69